Time;durP1;ratioP1;P1;durP2;ratioP2;P2;SDS_P1;SDS_P2;PMS_P1;PMS_P2;Temp;Humidity;BMP_temperature;BMP_pressure;BME280_temperature;BME280_humidity;BME280_pressure;Samples;Min_cycle;Max_cycle;Signal;HPM_P1;HPM_P2
2021/09/08 07:16:50;;;;;;;6.05;5.45;;;;;;;16.91;59.86;95150.25;818388;71;32784;-80
2021/09/08 07:31:45;;;;;;;6.17;5.58;;;;;;;18.35;58.90;95163.63;833912;71;28666;-76
2021/09/08 07:46:51;;;;;;;6.20;5.50;;;;;;;18.78;52.81;95166.61;828239;71;30941;-77
2021/09/08 08:16:37;;;;;;;6.87;4.10;;;;;;;18.99;49.88;95126.19;827852;71;29303;-74
2021/09/08 08:17:42;;;;;;;4.80;4.30;;;;;;;19.19;48.95;95157.11;808540;72;25230;-78
2021/09/08 08:31:39;;;;;;;3.85;3.55;;;;;;;19.82;45.70;95158.33;828924;71;29292;-77
2021/09/08 08:47:01;;;;;;;4.00;3.60;;;;;;;20.68;42.60;95157.61;828886;71;32881;-76
2021/09/08 09:17:23;;;;;;;4.90;4.37;;;;;;;20.49;44.34;95130.94;827289;71;31665;-80
2021/09/08 09:32:26;;;;;;;4.10;3.80;;;;;;;19.99;45.38;95110.20;833993;71;31752;-80
2021/09/08 09:47:05;;;;;;;4.42;4.03;;;;;;;20.77;44.20;95097.70;828365;71;28645;-79
2021/09/08 10:02:26;;;;;;;4.95;3.70;;;;;;;22.13;40.46;95094.35;828318;71;28731;-79
2021/09/08 10:17:22;;;;;;;5.65;3.25;;;;;;;21.80;38.19;95088.81;827523;71;31692;-79
2021/09/08 10:31:59;;;;;;;3.58;3.27;;;;;;;21.43;38.34;95092.24;828600;71;29258;-76
2021/09/08 11:02:19;;;;;;;4.08;3.67;;;;;;;20.75;40.17;95086.59;833458;71;31709;-76
2021/09/08 11:17:03;;;;;;;4.50;3.70;;;;;;;20.95;40.51;95086.77;828192;71;29202;-79
2021/09/08 11:31:58;;;;;;;3.87;3.58;;;;;;;20.60;42.18;95079.31;833972;71;31643;-77
2021/09/08 11:46:50;;;;;;;3.60;3.30;;;;;;;20.80;41.83;95072.23;828211;71;28832;-76
2021/09/08 12:01:58;;;;;;;4.05;3.75;;;;;;;20.48;43.50;95053.42;828633;71;32289;-78
2021/09/08 12:17:02;;;;;;;6.10;4.33;;;;;;;20.92;42.93;95040.73;828115;71;29129;-77
2021/09/08 12:32:11;;;;;;;5.17;3.95;;;;;;;20.12;44.74;95040.36;833896;71;28825;-78
2021/09/08 12:47:10;;;;;;;6.55;3.95;;;;;;;19.77;46.48;95029.40;833817;71;31757;-77
2021/09/08 13:01:51;;;;;;;4.42;4.00;;;;;;;19.69;46.74;95005.73;834066;71;32060;-77
2021/09/08 13:16:56;;;;;;;4.55;4.22;;;;;;;19.76;47.02;94994.55;827333;71;32985;-76
2021/09/08 13:31:47;;;;;;;4.20;3.90;;;;;;;19.79;46.87;94981.34;834272;71;28718;-75
2021/09/08 13:46:52;;;;;;;4.97;4.50;;;;;;;19.63;47.48;94965.80;833904;71;30425;-77
2021/09/08 14:01:39;;;;;;;4.90;4.50;;;;;;;19.46;48.19;94960.12;828049;71;30973;-78
2021/09/08 14:02:44;;;;;;;4.50;4.20;;;;;;;19.45;48.38;94964.47;808642;72;25261;-78
2021/09/08 14:16:43;;;;;;;5.00;4.55;;;;;;;19.46;48.24;94958.02;827450;71;31718;-79
2021/09/08 14:32:03;;;;;;;4.30;4.00;;;;;;;19.45;48.41;94951.92;827497;71;31829;-78
2021/09/08 14:46:41;;;;;;;5.03;4.53;;;;;;;19.46;48.55;94950.80;834013;71;29156;-76
2021/09/08 15:17:09;;;;;;;8.23;4.25;;;;;;;19.20;48.13;94936.48;827910;71;34035;-77
2021/09/08 15:32:09;;;;;;;4.30;3.90;;;;;;;18.94;47.27;94936.24;827127;71;32527;-78
2021/09/08 15:47:05;;;;;;;4.33;3.80;;;;;;;18.76;47.51;94918.33;828209;71;30250;-77
2021/09/08 16:02:10;;;;;;;4.47;4.08;;;;;;;18.69;49.48;94915.42;828274;71;30308;-77
2021/09/08 16:03:14;;;;;;;4.35;3.95;;;;;;;18.63;48.37;94912.75;808621;73;26283;-77
2021/09/08 16:17:10;;;;;;;5.28;4.00;;;;;;;18.46;48.07;94899.09;828405;71;29700;-76
2021/09/08 16:31:57;;;;;;;4.17;3.75;;;;;;;18.10;48.88;94895.73;834374;71;30337;-78
2021/09/08 16:46:58;;;;;;;4.80;3.80;;;;;;;17.87;49.82;94890.77;833960;71;30193;-76
2021/09/08 17:02:07;;;;;;;3.65;3.35;;;;;;;17.74;50.40;94897.06;827053;71;33104;-74
2021/09/08 17:17:08;;;;;;;5.28;3.52;;;;;;;17.60;50.55;94899.42;827231;71;33136;-74
2021/09/08 17:31:49;;;;;;;4.35;2.90;;;;;;;17.62;50.91;94919.78;827860;71;30350;-74
2021/09/08 17:46:51;;;;;;;3.67;3.40;;;;;;;17.57;51.25;94917.30;828039;71;30679;-72
2021/09/08 18:01:52;;;;;;;4.05;3.67;;;;;;;17.36;52.37;94927.11;828096;71;30197;-71
2021/09/08 18:02:56;;;;;;;5.17;4.65;;;;;;;17.31;52.54;94932.03;808404;73;26281;-72
2021/09/08 18:16:55;;;;;;;6.53;4.50;;;;;;;17.25;52.96;94938.61;833758;71;29713;-71
2021/09/08 18:32:19;;;;;;;4.80;4.25;;;;;;;16.95;54.29;94941.23;834977;71;32016;-73
2021/09/08 18:46:56;;;;;;;8.00;5.20;;;;;;;16.81;55.27;94940.64;820691;71;29856;-74
2021/09/08 19:01:44;;;;;;;5.70;5.20;;;;;;;16.66;56.12;94941.11;833709;71;30300;-76
2021/09/08 19:16:46;;;;;;;8.90;4.67;;;;;;;16.55;56.53;94941.98;833762;71;31130;-74
2021/09/08 19:31:54;;;;;;;5.00;4.10;;;;;;;16.52;56.71;94945.25;827114;71;32768;-76
2021/09/08 19:46:49;;;;;;;5.35;3.70;;;;;;;16.52;56.64;94944.70;834090;71;30130;-86
2021/09/08 20:01:42;;;;;;;3.92;3.52;;;;;;;16.44;57.01;94942.84;819937;71;32796;-83
2021/09/08 20:16:45;;;;;;;4.78;3.80;;;;;;;16.40;57.14;94933.97;828205;71;33269;-84
2021/09/08 20:31:54;;;;;;;8.33;3.40;;;;;;;16.32;57.58;94940.84;829101;71;29701;-81
2021/09/08 20:47:05;;;;;;;;;;;;;;;;;;;;;
2021/09/08 21:16:15;;;;;;;3.60;3.30;;;;;;;16.20;58.19;94934.84;828283;71;32641;-83
2021/09/08 21:31:09;;;;;;;3.40;3.10;;;;;;;16.18;58.29;94934.38;828612;71;30368;-84
2021/09/08 21:46:20;;;;;;;4.00;3.70;;;;;;;16.13;58.69;94929.23;828698;71;32713;-82
2021/09/08 22:01:23;;;;;;;5.10;3.85;;;;;;;16.15;58.79;94912.48;828932;71;32735;-81
2021/09/08 22:16:20;;;;;;;3.70;3.37;;;;;;;16.14;58.96;94900.88;834252;71;32648;-87
2021/09/08 22:31:20;;;;;;;5.05;3.50;;;;;;;16.07;59.20;94901.91;827522;71;33168;-87
2021/09/08 22:46:24;;;;;;;3.60;3.30;;;;;;;15.97;59.98;94911.70;828627;71;32867;-84
2021/09/08 23:01:08;;;;;;;3.75;3.45;;;;;;;15.74;61.61;94913.72;795209;74;30086;-84
2021/09/08 23:16:10;;;;;;;5.10;4.65;;;;;;;15.59;63.42;94904.86;835267;71;29765;-84
2021/09/08 23:31:22;;;;;;;6.12;5.60;;;;;;;15.46;65.14;94911.85;827960;71;32692;-85
2021/09/08 23:46:15;;;;;;;6.55;5.95;;;;;;;15.32;65.90;94908.00;827503;71;33105;-81
